Fsl New York — 9VBQ8 — position and weather

sailwx.info

Track history (hours):
 
Tides and Currents Weather Stations Pressure Air Temp Water Temp Dewpoint Dewpoint Depression Visibility Wind Speed Wind Dir Waves Ship Positions

Fsl New York

Last reported at 2014-Oct-25 22:33 UTC. Time now 2014-Oct-25 23:29 UTC.
Position N 57°12' E 007°30'.

Length 138 m; draft 6.3 m.

Type: Tanker. MMSI: 565174000.

Date/timePositionNaut miles runAvg speedWind from/ knotsBaromVisibWave heightAir tempDewpointWater temp
2014-Oct-25 22:33N 57°12' E 007°30'1413.8
2014-Oct-25 21:31N 57°01' E 007°12'1313.5
2014-Oct-25 20:33N 56°49' E 007°08'1413.7
2014-Oct-25 19:33N 56°35' E 007°06'1413.7
2014-Oct-25 18:33N 56°21' E 007°04'1413.6
2014-Oct-25 17:33N 56°08' E 007°04'2713.7
2014-Oct-25 15:33N 55°40' E 007°00'1414.1
2014-Oct-25 14:33N 55°26' E 006°60'1414.1
2014-Oct-25 13:34N 55°12' E 007°00'1414.0
2014-Oct-25 12:33N 54°58' E 007°00'1513.9
2014-Oct-25 11:28N 54°43' E 006°60'1213.2
2014-Oct-25 10:34N 54°31' E 007°00'1111.3
2014-Oct-25 09:33N 54°21' E 007°09'1212.0
2014-Oct-25 08:33N 54°15' E 007°27'1111.4
2014-Oct-25 07:33N 54°10' E 007°44'1211.9
2014-Oct-25 06:33N 54°03' E 008°01'1312.9
2014-Oct-25 05:33N 53°60' E 008°22'1414.3
2014-Oct-25 04:33N 53°53' E 008°43'1313.3
2014-Oct-25 03:33N 53°53' E 009°06'1111.0
2014-Oct-25 02:33N 53°48' E 009°23'1111.2
2014-Oct-25 01:33N 53°38' E 009°32'10 9.8
2014-Oct-25 00:33N 53°34' E 009°46'6 6.4
2014-Oct-24 23:33N 53°31' E 009°56'1 0.1
2014-Oct-24 02:23N 53°30' E 009°58'1 1.3
2014-Oct-24 01:33N 53°31' E 009°56'9 9.4
2014-Oct-24 00:34N 53°34' E 009°41'1514.1
2014-Oct-23 23:30N 53°45' E 009°24'1212.7
2014-Oct-23 22:33N 53°53' E 009°09'1413.6
2014-Oct-23 21:33N 53°51' E 008°46'1414.0
2014-Oct-23 20:34N 53°59' E 008°27'1413.7
2014-Oct-23 19:33N 54°00' E 008°03'1313.6
2014-Oct-23 18:34N 54°07' E 007°43'1313.4
2014-Oct-23 17:33N 54°09' E 007°21'4212.7
2014-Oct-23 14:14N 54°07' E 006°09'912.5
2014-Oct-23 13:33N 54°06' E 005°54'1212.5
2014-Oct-23 12:33N 54°04' E 005°33'1312.7
2014-Oct-23 11:32N 54°03' E 005°11'1312.8
2014-Oct-23 10:31N 54°01' E 004°49'6513.0
2014-Oct-23 05:31N 53°14' E 003°33'1313.6
2014-Oct-23 04:32N 53°01' E 003°24'9213.1
2014-Oct-22 21:29N 51°33' E 002°42'1011.2
2014-Oct-22 20:33N 51°23' E 002°44'1312.6
2014-Oct-22 19:31N 51°24' E 003°05'1313.8
2014-Oct-22 18:33N 51°25' E 003°26'1110.6
2014-Oct-22 17:33N 51°23' E 003°43'1211.8
2014-Oct-22 16:33N 51°25' E 004°02'1010.4
2014-Oct-22 15:34N 51°21' E 004°17'0 0.1
2014-Oct-22 14:33N 51°21' E 004°17'1 0.9
2014-Oct-22 13:34N 51°20' E 004°18'6 5.5
2014-Oct-22 12:34N 51°15' E 004°23'0 0.1
2014-Oct-22 11:33N 51°15' E 004°23'0 0.0
2014-Oct-22 10:33N 51°15' E 004°23'0 0.0
2014-Oct-22 09:33N 51°15' E 004°23'0 0.0
2014-Oct-22 08:33N 51°15' E 004°23'0 0.0
2014-Oct-22 07:33N 51°15' E 004°23'0 0.0
2014-Oct-22 06:33N 51°15' E 004°23'0 0.0
2014-Oct-22 05:33N 51°15' E 004°23'0 0.0
2014-Oct-22 04:33N 51°15' E 004°23'0 0.0
2014-Oct-22 03:33N 51°15' E 004°23'0 0.0
2014-Oct-22 02:33N 51°15' E 004°23'0 0.0
2014-Oct-22 01:33N 51°15' E 004°23'0 0.0
2014-Oct-22 00:33N 51°15' E 004°23'0 0.0
2014-Oct-21 23:33N 51°15' E 004°23'0 0.0
2014-Oct-21 22:33N 51°15' E 004°23'0 0.0
2014-Oct-21 21:33N 51°15' E 004°23'0 0.0
2014-Oct-21 20:33N 51°15' E 004°23'0 0.0
2014-Oct-21 19:33N 51°15' E 004°23'0 0.0
2014-Oct-21 18:33N 51°15' E 004°23'0 0.0
2014-Oct-21 17:33N 51°15' E 004°23'0 0.0
2014-Oct-21 16:33N 51°15' E 004°23'0 0.0
2014-Oct-21 15:33N 51°15' E 004°23'0 0.0
2014-Oct-21 14:33N 51°15' E 004°23'0 0.3
2014-Oct-21 13:33N 51°15' E 004°22'0 0.0
2014-Oct-21 12:33N 51°15' E 004°22'0 0.0
2014-Oct-21 11:33N 51°15' E 004°22'0 0.0
2014-Oct-21 10:33N 51°15' E 004°22'0 0.0
2014-Oct-21 09:33N 51°15' E 004°22'0 0.0
2014-Oct-21 08:33N 51°15' E 004°22'0 0.0
2014-Oct-21 07:33N 51°15' E 004°22'0 0.0
2014-Oct-21 06:33N 51°15' E 004°22'0 0.0
2014-Oct-21 05:33N 51°15' E 004°22'0 0.0
2014-Oct-21 04:33N 51°15' E 004°22'0 0.0
2014-Oct-21 03:30N 51°15' E 004°22'0 0.0
2014-Oct-21 02:33N 51°15' E 004°22'0 0.0
2014-Oct-21 01:30N 51°15' E 004°22'0 0.0
2014-Oct-21 00:33N 51°15' E 004°22'0 0.0
2014-Oct-20 23:30N 51°15' E 004°22'0 0.0
2014-Oct-20 22:27N 51°15' E 004°22'0 0.0
2014-Oct-20 21:33N 51°15' E 004°22'0 0.0
2014-Oct-20 20:30N 51°15' E 004°22'0 0.0
2014-Oct-20 19:30N 51°15' E 004°22'0 0.0
2014-Oct-20 18:33N 51°15' E 004°22'0 0.0
2014-Oct-20 17:33N 51°15' E 004°22'0 0.0
2014-Oct-20 16:33N 51°15' E 004°22'0 0.0
2014-Oct-20 15:33N 51°15' E 004°22'0 0.0
2014-Oct-20 14:33N 51°15' E 004°22'0 0.0
2014-Oct-20 13:33N 51°15' E 004°22'0 0.0
2014-Oct-20 12:33N 51°15' E 004°22'0 0.0
2014-Oct-20 11:30N 51°15' E 004°22'0 0.0
2014-Oct-20 10:33N 51°15' E 004°22'0 0.0
2014-Oct-20 09:33N 51°15' E 004°22'0 0.0
2014-Oct-20 08:33N 51°15' E 004°22'0 0.0
2014-Oct-20 07:33N 51°15' E 004°22'0 0.0
2014-Oct-20 06:33N 51°15' E 004°22'0 0.0
2014-Oct-20 05:33N 51°15' E 004°22'0 0.0
2014-Oct-20 04:33N 51°15' E 004°22'0 0.0
2014-Oct-20 03:33N 51°15' E 004°22'0 0.0
2014-Oct-20 02:33N 51°15' E 004°22'0 0.0
2014-Oct-20 01:33N 51°15' E 004°22'0 0.0
2014-Oct-20 00:33N 51°15' E 004°22'0 0.0
2014-Oct-19 23:33N 51°15' E 004°22'0 0.0
2014-Oct-19 22:33N 51°15' E 004°22'0 0.0
2014-Oct-19 21:33N 51°15' E 004°22'0 0.0
2014-Oct-19 20:30N 51°15' E 004°22'0 0.0
2014-Oct-19 19:33N 51°15' E 004°22'0 0.0
2014-Oct-19 18:33N 51°15' E 004°22'0 0.0
2014-Oct-19 17:33N 51°15' E 004°22'0 0.0
2014-Oct-19 16:33N 51°15' E 004°22'0 0.0
2014-Oct-19 15:33N 51°15' E 004°22'0 0.0
2014-Oct-19 14:33N 51°15' E 004°22'0 0.0
2014-Oct-19 13:33N 51°15' E 004°22'0 0.0
2014-Oct-19 12:33N 51°15' E 004°22'0 0.0
2014-Oct-19 11:33N 51°15' E 004°22'0 0.0
2014-Oct-19 10:33N 51°15' E 004°22'0 0.0
2014-Oct-19 09:33N 51°15' E 004°22'0 0.0
2014-Oct-19 08:33N 51°15' E 004°22'0 0.0
2014-Oct-19 07:33N 51°15' E 004°22'0 0.0
2014-Oct-19 06:33N 51°15' E 004°22'0 0.0
2014-Oct-19 05:33N 51°15' E 004°22'0 0.0
2014-Oct-19 04:33N 51°15' E 004°22'0 0.0
2014-Oct-19 03:33N 51°15' E 004°22'0 0.0
2014-Oct-19 02:33N 51°15' E 004°22'0 0.0
2014-Oct-19 01:33N 51°15' E 004°22'0 0.0
2014-Oct-19 00:33N 51°15' E 004°22'0 0.0
2014-Oct-18 23:33N 51°15' E 004°22'0 0.0
2014-Oct-18 22:33N 51°15' E 004°22'0 0.0
2014-Oct-18 21:33N 51°15' E 004°22'0 0.0
2014-Oct-18 20:33N 51°15' E 004°22'0 0.0
2014-Oct-18 19:33N 51°15' E 004°22'0 0.0
2014-Oct-18 18:33N 51°15' E 004°22'0 0.0
2014-Oct-18 17:33N 51°15' E 004°22'0 0.0
2014-Oct-18 16:33N 51°15' E 004°22'0 0.0
2014-Oct-18 15:33N 51°15' E 004°22'0 0.0
2014-Oct-18 14:33N 51°15' E 004°22'0 0.0
2014-Oct-18 13:33N 51°15' E 004°22'0 0.0
2014-Oct-18 12:33N 51°15' E 004°22'0 0.0
2014-Oct-18 11:33N 51°15' E 004°22'0 0.0
2014-Oct-18 10:33N 51°15' E 004°22'0 0.0
2014-Oct-18 09:33N 51°15' E 004°22'0 0.0
2014-Oct-18 08:33N 51°15' E 004°22'0 0.0
2014-Oct-18 07:33N 51°15' E 004°22'3 2.6
2014-Oct-18 06:33N 51°18' E 004°20'4 3.8
2014-Oct-18 05:33N 51°21' E 004°17'0 0.2
2014-Oct-18 04:33N 51°21' E 004°17'5 5.2
2014-Oct-18 03:34N 51°23' E 004°09'7 7.3
2014-Oct-18 02:33N 51°24' E 003°57'9 8.7
2014-Oct-18 01:33N 51°22' E 003°44'7 7.4
2014-Oct-18 00:33N 51°25' E 003°33'1211.3
2014-Oct-17 23:32N 51°25' E 003°14'1212.4
2014-Oct-17 22:33N 51°22' E 002°55'1212.2
2014-Oct-17 21:33N 51°22' E 002°36'1211.7
2014-Oct-17 20:33N 51°18' E 002°18'1414.1
2014-Oct-17 19:34N 51°11' E 001°59'1414.0
2014-Oct-17 18:34N 51°03' E 001°41'1514.6
2014-Oct-17 17:33N 50°51' E 001°27'2813.3
2014-Oct-17 15:25N 50°30' E 000°56'1213.7
2014-Oct-17 14:33N 50°27' E 000°38'  
Track history (hours):
 
Tides and Currents Weather Stations Pressure Air Temp Water Temp Dewpoint Dewpoint Depression Visibility Wind Speed Wind Dir Waves Ship Positions

Fsl New York

Last reported at 2014-Oct-25 22:33 UTC. Time now 2014-Oct-25 23:29 UTC.
Position N 57°12' E 007°30'.

Length 138 m; draft 6.3 m.

Type: Tanker. MMSI: 565174000.

Date/timePositionNaut miles runAvg speedWind from/ knotsBaromVisibWave heightAir tempDewpointWater temp
2014-Oct-25 22:33N 57°12' E 007°30'1413.8
2014-Oct-25 21:31N 57°01' E 007°12'1313.5
2014-Oct-25 20:33N 56°49' E 007°08'1413.7
2014-Oct-25 19:33N 56°35' E 007°06'1413.7
2014-Oct-25 18:33N 56°21' E 007°04'1413.6
2014-Oct-25 17:33N 56°08' E 007°04'2713.7
2014-Oct-25 15:33N 55°40' E 007°00'1414.1
2014-Oct-25 14:33N 55°26' E 006°60'1414.1
2014-Oct-25 13:34N 55°12' E 007°00'1414.0
2014-Oct-25 12:33N 54°58' E 007°00'1513.9
2014-Oct-25 11:28N 54°43' E 006°60'1213.2
2014-Oct-25 10:34N 54°31' E 007°00'1111.3
2014-Oct-25 09:33N 54°21' E 007°09'1212.0
2014-Oct-25 08:33N 54°15' E 007°27'1111.4
2014-Oct-25 07:33N 54°10' E 007°44'1211.9
2014-Oct-25 06:33N 54°03' E 008°01'1312.9
2014-Oct-25 05:33N 53°60' E 008°22'1414.3
2014-Oct-25 04:33N 53°53' E 008°43'1313.3
2014-Oct-25 03:33N 53°53' E 009°06'1111.0
2014-Oct-25 02:33N 53°48' E 009°23'1111.2
2014-Oct-25 01:33N 53°38' E 009°32'10 9.8
2014-Oct-25 00:33N 53°34' E 009°46'6 6.4
2014-Oct-24 23:33N 53°31' E 009°56'1 0.1
2014-Oct-24 02:23N 53°30' E 009°58'1 1.3
2014-Oct-24 01:33N 53°31' E 009°56'9 9.4
2014-Oct-24 00:34N 53°34' E 009°41'1514.1
2014-Oct-23 23:30N 53°45' E 009°24'1212.7
2014-Oct-23 22:33N 53°53' E 009°09'1413.6
2014-Oct-23 21:33N 53°51' E 008°46'1414.0
2014-Oct-23 20:34N 53°59' E 008°27'1413.7
2014-Oct-23 19:33N 54°00' E 008°03'1313.6
2014-Oct-23 18:34N 54°07' E 007°43'1313.4
2014-Oct-23 17:33N 54°09' E 007°21'4212.7
2014-Oct-23 14:14N 54°07' E 006°09'912.5
2014-Oct-23 13:33N 54°06' E 005°54'1212.5
2014-Oct-23 12:33N 54°04' E 005°33'1312.7
2014-Oct-23 11:32N 54°03' E 005°11'1312.8
2014-Oct-23 10:31N 54°01' E 004°49'6513.0
2014-Oct-23 05:31N 53°14' E 003°33'1313.6
2014-Oct-23 04:32N 53°01' E 003°24'9213.1
2014-Oct-22 21:29N 51°33' E 002°42'1011.2
2014-Oct-22 20:33N 51°23' E 002°44'1312.6
2014-Oct-22 19:31N 51°24' E 003°05'1313.8
2014-Oct-22 18:33N 51°25' E 003°26'1110.6
2014-Oct-22 17:33N 51°23' E 003°43'1211.8
2014-Oct-22 16:33N 51°25' E 004°02'1010.4
2014-Oct-22 15:34N 51°21' E 004°17'0 0.1
2014-Oct-22 14:33N 51°21' E 004°17'1 0.9
2014-Oct-22 13:34N 51°20' E 004°18'6 5.5
2014-Oct-22 12:34N 51°15' E 004°23'0 0.1
2014-Oct-22 11:33N 51°15' E 004°23'0 0.0
2014-Oct-22 10:33N 51°15' E 004°23'0 0.0
2014-Oct-22 09:33N 51°15' E 004°23'0 0.0
2014-Oct-22 08:33N 51°15' E 004°23'0 0.0
2014-Oct-22 07:33N 51°15' E 004°23'0 0.0
2014-Oct-22 06:33N 51°15' E 004°23'0 0.0
2014-Oct-22 05:33N 51°15' E 004°23'0 0.0
2014-Oct-22 04:33N 51°15' E 004°23'0 0.0
2014-Oct-22 03:33N 51°15' E 004°23'0 0.0
2014-Oct-22 02:33N 51°15' E 004°23'0 0.0
2014-Oct-22 01:33N 51°15' E 004°23'0 0.0
2014-Oct-22 00:33N 51°15' E 004°23'0 0.0
2014-Oct-21 23:33N 51°15' E 004°23'0 0.0
2014-Oct-21 22:33N 51°15' E 004°23'0 0.0
2014-Oct-21 21:33N 51°15' E 004°23'0 0.0
2014-Oct-21 20:33N 51°15' E 004°23'0 0.0
2014-Oct-21 19:33N 51°15' E 004°23'0 0.0
2014-Oct-21 18:33N 51°15' E 004°23'0 0.0
2014-Oct-21 17:33N 51°15' E 004°23'0 0.0
2014-Oct-21 16:33N 51°15' E 004°23'0 0.0
2014-Oct-21 15:33N 51°15' E 004°23'0 0.0
2014-Oct-21 14:33N 51°15' E 004°23'0 0.3
2014-Oct-21 13:33N 51°15' E 004°22'0 0.0
2014-Oct-21 12:33N 51°15' E 004°22'0 0.0
2014-Oct-21 11:33N 51°15' E 004°22'0 0.0
2014-Oct-21 10:33N 51°15' E 004°22'0 0.0
2014-Oct-21 09:33N 51°15' E 004°22'0 0.0
2014-Oct-21 08:33N 51°15' E 004°22'0 0.0
2014-Oct-21 07:33N 51°15' E 004°22'0 0.0
2014-Oct-21 06:33N 51°15' E 004°22'0 0.0
2014-Oct-21 05:33N 51°15' E 004°22'0 0.0
2014-Oct-21 04:33N 51°15' E 004°22'0 0.0
2014-Oct-21 03:30N 51°15' E 004°22'0 0.0
2014-Oct-21 02:33N 51°15' E 004°22'0 0.0
2014-Oct-21 01:30N 51°15' E 004°22'0 0.0
2014-Oct-21 00:33N 51°15' E 004°22'0 0.0
2014-Oct-20 23:30N 51°15' E 004°22'0 0.0
2014-Oct-20 22:27N 51°15' E 004°22'0 0.0
2014-Oct-20 21:33N 51°15' E 004°22'0 0.0
2014-Oct-20 20:30N 51°15' E 004°22'0 0.0
2014-Oct-20 19:30N 51°15' E 004°22'0 0.0
2014-Oct-20 18:33N 51°15' E 004°22'0 0.0
2014-Oct-20 17:33N 51°15' E 004°22'0 0.0
2014-Oct-20 16:33N 51°15' E 004°22'0 0.0
2014-Oct-20 15:33N 51°15' E 004°22'0 0.0
2014-Oct-20 14:33N 51°15' E 004°22'0 0.0
2014-Oct-20 13:33N 51°15' E 004°22'0 0.0
2014-Oct-20 12:33N 51°15' E 004°22'0 0.0
2014-Oct-20 11:30N 51°15' E 004°22'0 0.0
2014-Oct-20 10:33N 51°15' E 004°22'0 0.0
2014-Oct-20 09:33N 51°15' E 004°22'0 0.0
2014-Oct-20 08:33N 51°15' E 004°22'0 0.0
2014-Oct-20 07:33N 51°15' E 004°22'0 0.0
2014-Oct-20 06:33N 51°15' E 004°22'0 0.0
2014-Oct-20 05:33N 51°15' E 004°22'0 0.0
2014-Oct-20 04:33N 51°15' E 004°22'0 0.0
2014-Oct-20 03:33N 51°15' E 004°22'0 0.0
2014-Oct-20 02:33N 51°15' E 004°22'0 0.0
2014-Oct-20 01:33N 51°15' E 004°22'0 0.0
2014-Oct-20 00:33N 51°15' E 004°22'0 0.0
2014-Oct-19 23:33N 51°15' E 004°22'0 0.0
2014-Oct-19 22:33N 51°15' E 004°22'0 0.0
2014-Oct-19 21:33N 51°15' E 004°22'0 0.0
2014-Oct-19 20:30N 51°15' E 004°22'0 0.0
2014-Oct-19 19:33N 51°15' E 004°22'0 0.0
2014-Oct-19 18:33N 51°15' E 004°22'0 0.0
2014-Oct-19 17:33N 51°15' E 004°22'0 0.0
2014-Oct-19 16:33N 51°15' E 004°22'0 0.0
2014-Oct-19 15:33N 51°15' E 004°22'0 0.0
2014-Oct-19 14:33N 51°15' E 004°22'0 0.0
2014-Oct-19 13:33N 51°15' E 004°22'0 0.0
2014-Oct-19 12:33N 51°15' E 004°22'0 0.0
2014-Oct-19 11:33N 51°15' E 004°22'0 0.0
2014-Oct-19 10:33N 51°15' E 004°22'0 0.0
2014-Oct-19 09:33N 51°15' E 004°22'0 0.0
2014-Oct-19 08:33N 51°15' E 004°22'0 0.0
2014-Oct-19 07:33N 51°15' E 004°22'0 0.0
2014-Oct-19 06:33N 51°15' E 004°22'0 0.0
2014-Oct-19 05:33N 51°15' E 004°22'0 0.0
2014-Oct-19 04:33N 51°15' E 004°22'0 0.0
2014-Oct-19 03:33N 51°15' E 004°22'0 0.0
2014-Oct-19 02:33N 51°15' E 004°22'0 0.0
2014-Oct-19 01:33N 51°15' E 004°22'0 0.0
2014-Oct-19 00:33N 51°15' E 004°22'0 0.0
2014-Oct-18 23:33N 51°15' E 004°22'0 0.0
2014-Oct-18 22:33N 51°15' E 004°22'0 0.0
2014-Oct-18 21:33N 51°15' E 004°22'0 0.0
2014-Oct-18 20:33N 51°15' E 004°22'0 0.0
2014-Oct-18 19:33N 51°15' E 004°22'0 0.0
2014-Oct-18 18:33N 51°15' E 004°22'0 0.0
2014-Oct-18 17:33N 51°15' E 004°22'0 0.0
2014-Oct-18 16:33N 51°15' E 004°22'0 0.0
2014-Oct-18 15:33N 51°15' E 004°22'0 0.0
2014-Oct-18 14:33N 51°15' E 004°22'0 0.0
2014-Oct-18 13:33N 51°15' E 004°22'0 0.0
2014-Oct-18 12:33N 51°15' E 004°22'0 0.0
2014-Oct-18 11:33N 51°15' E 004°22'0 0.0
2014-Oct-18 10:33N 51°15' E 004°22'0 0.0
2014-Oct-18 09:33N 51°15' E 004°22'0 0.0
2014-Oct-18 08:33N 51°15' E 004°22'0 0.0
2014-Oct-18 07:33N 51°15' E 004°22'3 2.6
2014-Oct-18 06:33N 51°18' E 004°20'4 3.8
2014-Oct-18 05:33N 51°21' E 004°17'0 0.2
2014-Oct-18 04:33N 51°21' E 004°17'5 5.2
2014-Oct-18 03:34N 51°23' E 004°09'7 7.3
2014-Oct-18 02:33N 51°24' E 003°57'9 8.7
2014-Oct-18 01:33N 51°22' E 003°44'7 7.4
2014-Oct-18 00:33N 51°25' E 003°33'1211.3
2014-Oct-17 23:32N 51°25' E 003°14'1212.4
2014-Oct-17 22:33N 51°22' E 002°55'1212.2
2014-Oct-17 21:33N 51°22' E 002°36'1211.7
2014-Oct-17 20:33N 51°18' E 002°18'1414.1
2014-Oct-17 19:34N 51°11' E 001°59'1414.0
2014-Oct-17 18:34N 51°03' E 001°41'1514.6
2014-Oct-17 17:33N 50°51' E 001°27'2813.3
2014-Oct-17 15:25N 50°30' E 000°56'1213.7
2014-Oct-17 14:33N 50°27' E 000°38'  

Dump ship's entire track history